Time;durP1;ratioP1;P1;durP2;ratioP2;P2;SDS_P1;SDS_P2;PMS_P1;PMS_P2;Temp;Humidity;BMP_temperature;BMP_pressure;BME280_temperature;BME280_humidity;BME280_pressure;Samples;Min_cycle;Max_cycle;Signal;HPM_P1;HPM_P2
2023/02/20 00:01:51;;;;;;;21.57;7.50;;;7.40;99.90;;;;;;5144216;23;20226;-92
2023/02/20 00:03:52;;;;;;;20.37;6.80;;;7.30;99.90;;;;;;5144175;23;20155;-92
2023/02/20 00:05:52;;;;;;;21.10;6.90;;;7.20;99.90;;;;;;5169192;23;20150;-91
2023/02/20 00:07:53;;;;;;;20.00;7.03;;;7.20;99.90;;;;;;5144231;23;20203;-93
2023/02/20 00:09:54;;;;;;;25.10;7.50;;;7.20;99.90;;;;;;5169152;23;20170;-92
2023/02/20 00:11:55;;;;;;;25.40;7.57;;;7.30;99.90;;;;;;5143981;23;20496;-91
2023/02/20 00:13:56;;;;;;;23.17;7.57;;;7.40;99.90;;;;;;5144514;23;20183;-92
2023/02/20 00:15:57;;;;;;;22.83;7.23;;;7.30;99.90;;;;;;5144103;23;20193;-94
2023/02/20 00:17:58;;;;;;;21.50;7.53;;;7.30;99.90;;;;;;5168362;23;20147;-92
2023/02/20 00:19:58;;;;;;;25.03;8.60;;;7.30;99.90;;;;;;5144149;23;20626;-92
2023/02/20 00:21:59;;;;;;;23.10;8.10;;;7.40;99.90;;;;;;5143818;23;20246;-92
2023/02/20 00:24:00;;;;;;;28.83;8.87;;;7.50;99.90;;;;;;5168668;23;20549;-92
2023/02/20 00:26:01;;;;;;;24.73;8.27;;;7.50;99.90;;;;;;5144793;23;20151;-92
2023/02/20 00:28:02;;;;;;;27.47;8.43;;;7.50;99.90;;;;;;5143695;23;20155;-92
2023/02/20 00:30:04;;;;;;;22.97;8.40;;;7.40;99.90;;;;;;5143918;23;20218;-91
2023/02/20 00:32:05;;;;;;;25.20;8.80;;;7.40;99.90;;;;;;5169529;23;20155;-93
2023/02/20 00:34:06;;;;;;;36.43;11.80;;;7.50;99.90;;;;;;5168784;23;20183;-94
2023/02/20 00:36:07;;;;;;;29.47;11.67;;;7.30;99.90;;;;;;5169196;23;20677;-91
2023/02/20 00:38:08;;;;;;;27.03;12.03;;;7.40;99.90;;;;;;5168576;23;20150;-93
2023/02/20 00:40:09;;;;;;;37.03;13.17;;;7.40;99.90;;;;;;5143640;23;20167;-92
2023/02/20 00:42:10;;;;;;;33.83;13.77;;;7.50;99.90;;;;;;5144241;23;20148;-91
2023/02/20 00:44:12;;;;;;;33.87;14.10;;;7.60;99.90;;;;;;5144025;23;20152;-91
2023/02/20 00:46:13;;;;;;;34.10;13.20;;;7.70;99.90;;;;;;5143621;23;20182;-93
2023/02/20 00:48:14;;;;;;;35.17;12.87;;;7.70;99.90;;;;;;5144107;23;20165;-91
2023/02/20 00:50:16;;;;;;;28.30;12.13;;;7.60;99.90;;;;;;5143427;23;20180;-92
2023/02/20 00:52:18;;;;;;;31.53;12.93;;;7.50;99.90;;;;;;5143641;23;20147;-93
2023/02/20 00:54:19;;;;;;;35.60;13.90;;;7.60;99.90;;;;;;5168996;23;20549;-92
2023/02/20 00:56:20;;;;;;;37.70;13.90;;;7.60;99.90;;;;;;5143441;23;20147;-92
2023/02/20 00:58:20;;;;;;;26.90;12.60;;;7.60;99.90;;;;;;5169025;23;20154;-93
2023/02/20 01:00:26;;;;;;;28.40;13.27;;;7.70;99.90;;;;;;5143499;23;20179;-92
2023/02/20 01:02:26;;;;;;;28.67;12.33;;;7.70;99.90;;;;;;5143833;23;20242;-93
2023/02/20 01:04:27;;;;;;;29.20;11.60;;;7.80;99.90;;;;;;5168547;23;20147;-91
2023/02/20 01:06:28;;;;;;;28.80;10.60;;;7.70;99.90;;;;;;5143259;23;20155;-91
2023/02/20 01:08:28;;;;;;;29.10;13.33;;;7.50;99.90;;;;;;5143553;23;20151;-91
2023/02/20 01:10:30;;;;;;;28.60;12.33;;;7.40;99.90;;;;;;5143320;23;20250;-92
2023/02/20 01:12:30;;;;;;;25.63;12.67;;;7.40;99.90;;;;;;5143553;23;20614;-92
2023/02/20 01:14:31;;;;;;;28.23;12.40;;;7.40;99.90;;;;;;5169600;23;20193;-93
2023/02/20 01:16:35;;;;;;;31.90;13.10;;;7.50;99.90;;;;;;5144222;23;20158;-92
2023/02/20 01:18:36;;;;;;;29.30;13.43;;;7.60;99.90;;;;;;5143148;23;20537;-93
2023/02/20 01:20:37;;;;;;;31.87;11.80;;;7.70;99.90;;;;;;5168432;22;20213;-92
2023/02/20 01:22:38;;;;;;;28.03;10.03;;;7.50;99.90;;;;;;5144024;23;20164;-92
2023/02/20 01:24:38;;;;;;;26.17;12.13;;;7.40;99.90;;;;;;5143544;23;20183;-91
2023/02/20 01:26:47;;;;;;;25.57;11.93;;;7.40;99.90;;;;;;5143692;23;20238;-92
2023/02/20 01:28:48;;;;;;;28.70;11.73;;;7.40;99.90;;;;;;5143849;23;20158;-91
2023/02/20 01:30:49;;;;;;;32.33;11.93;;;7.60;99.90;;;;;;5143361;23;20243;-92
2023/02/20 01:32:49;;;;;;;33.80;11.73;;;7.70;99.90;;;;;;5168701;23;20146;-92
2023/02/20 01:34:51;;;;;;;24.93;10.53;;;7.70;99.90;;;;;;5143011;23;20192;-92
2023/02/20 01:36:54;;;;;;;27.23;10.33;;;7.70;99.90;;;;;;5144530;23;20147;-92
2023/02/20 01:38:54;;;;;;;33.13;10.40;;;7.80;99.90;;;;;;5142894;23;20151;-92
2023/02/20 01:40:55;;;;;;;25.53;10.20;;;8.00;99.90;;;;;;5168568;22;20153;-92
2023/02/20 01:42:56;;;;;;;30.80;10.57;;;8.10;99.90;;;;;;5143560;23;20152;-92
2023/02/20 01:45:23;;;;;;;23.53;10.20;;;8.10;99.90;;;;;;5143300;23;20214;-93
2023/02/20 01:47:24;;;;;;;26.07;10.10;;;8.10;99.90;;;;;;5143509;23;20159;-93
2023/02/20 01:49:31;;;;;;;28.57;10.10;;;8.10;99.90;;;;;;5143037;23;20175;-92
2023/02/20 01:51:37;;;;;;;28.57;10.37;;;8.10;99.90;;;;;;5143068;23;20146;-92
2023/02/20 01:53:38;;;;;;;30.20;9.97;;;8.10;99.90;;;;;;5144185;23;20226;-92
2023/02/20 01:55:48;;;;;;;26.23;9.90;;;8.10;99.90;;;;;;5168329;23;20165;-91
2023/02/20 01:57:53;;;;;;;31.30;9.63;;;7.90;99.90;;;;;;5143083;23;20226;-92
2023/02/20 02:00:03;;;;;;;32.57;10.97;;;8.00;99.90;;;;;;5193882;22;20205;-91
2023/02/20 02:02:05;;;;;;;34.27;10.73;;;8.10;99.90;;;;;;5168100;23;20565;-92
2023/02/20 02:04:10;;;;;;;29.97;10.87;;;8.10;99.90;;;;;;5143318;23;20144;-92
2023/02/20 02:06:13;;;;;;;26.43;10.83;;;8.10;99.90;;;;;;5143493;23;20186;-91
2023/02/20 02:08:17;;;;;;;32.10;12.40;;;8.10;99.90;;;;;;5143574;23;20155;-92
2023/02/20 02:10:23;;;;;;;37.23;11.83;;;8.20;99.90;;;;;;5142813;23;20605;-92
2023/02/20 02:12:24;;;;;;;30.67;12.53;;;8.10;99.90;;;;;;5142925;23;20155;-92
2023/02/20 02:14:25;;;;;;;39.30;12.60;;;8.30;99.90;;;;;;5167590;23;20756;-91
2023/02/20 02:17:10;;;;;;;34.93;13.40;;;8.30;99.90;;;;;;5143123;23;20155;-92
2023/02/20 02:19:32;;;;;;;38.80;14.80;;;8.30;99.90;;;;;;5146036;23;20182;-92
2023/02/20 02:22:24;;;;;;;34.83;14.63;;;8.40;99.90;;;;;;5142843;23;20152;-92
2023/02/20 02:24:33;;;;;;;46.90;14.63;;;8.40;99.90;;;;;;5093996;23;20617;-92
2023/02/20 02:26:58;;;;;;;43.47;14.77;;;8.30;99.90;;;;;;5142842;23;20598;-93
2023/02/20 02:29:22;;;;;;;49.47;15.43;;;8.30;99.90;;;;;;5142566;23;20670;-92
2023/02/20 02:31:32;;;;;;;38.30;14.97;;;8.40;99.90;;;;;;5142772;23;20152;-92
2023/02/20 02:34:03;;;;;;;36.77;14.93;;;8.40;99.90;;;;;;5143039;23;20179;-94
2023/02/20 02:36:37;;;;;;;41.17;14.80;;;8.40;99.90;;;;;;5143267;23;20157;-91
2023/02/20 02:39:11;;;;;;;39.50;14.20;;;8.30;99.90;;;;;;5165500;23;20166;-92
2023/02/20 02:41:40;;;;;;;36.30;14.17;;;8.20;99.90;;;;;;5098546;23;20230;-92
2023/02/20 02:43:50;;;;;;;42.57;14.57;;;8.00;99.90;;;;;;5169801;23;20245;-92
2023/02/20 02:45:54;;;;;;;37.03;14.80;;;8.10;99.90;;;;;;5169474;22;20147;-93
2023/02/20 02:48:05;;;;;;;40.70;14.93;;;8.00;99.90;;;;;;5144753;23;20503;-92
2023/02/20 02:50:35;;;;;;;31.87;13.77;;;7.90;99.90;;;;;;5144620;23;20190;-92
2023/02/20 02:52:37;;;;;;;33.60;14.50;;;7.90;99.90;;;;;;5145428;23;20247;-94
2023/02/20 02:54:38;;;;;;;38.80;14.33;;;8.00;99.90;;;;;;5144634;23;20285;-91
2023/02/20 02:56:44;;;;;;;33.83;15.73;;;8.10;99.90;;;;;;5144392;23;20171;-92
2023/02/20 02:58:45;;;;;;;35.47;16.10;;;8.00;99.90;;;;;;5144246;23;20148;-92
2023/02/20 03:00:51;;;;;;;39.97;17.23;;;7.90;99.90;;;;;;5169550;23;20546;-92
2023/02/20 03:02:59;;;;;;;39.30;16.30;;;7.80;99.90;;;;;;5144681;23;20282;-91
2023/02/20 03:05:04;;;;;;;53.70;18.90;;;7.90;99.90;;;;;;5195019;22;20145;-91
2023/02/20 03:07:12;;;;;;;46.93;18.73;;;8.00;99.90;;;;;;5145450;23;20234;-96
2023/02/20 03:09:18;;;;;;;55.57;18.97;;;8.00;99.90;;;;;;5144682;23;20210;-92
2023/02/20 03:11:20;;;;;;;42.07;18.53;;;7.90;99.90;;;;;;5144137;23;20147;-92
2023/02/20 03:15:51;;;;;;;42.57;18.17;;;8.20;99.90;;;;;;5169222;23;20513;-92
2023/02/20 03:18:10;;;;;;;42.43;16.60;;;8.10;99.90;;;;;;5169355;22;20154;-92
2023/02/20 03:20:14;;;;;;;46.07;15.90;;;7.90;99.90;;;;;;5144976;23;20246;-92
2023/02/20 03:22:19;;;;;;;44.73;15.67;;;7.90;99.90;;;;;;5144284;23;20561;-92
2023/02/20 03:24:23;;;;;;;38.50;14.90;;;7.90;99.90;;;;;;5144182;23;20235;-92
2023/02/20 03:26:30;;;;;;;41.50;15.53;;;8.00;99.90;;;;;;5144914;23;20148;-92
2023/02/20 03:28:36;;;;;;;36.73;13.87;;;8.10;99.90;;;;;;5144357;23;20147;-92
2023/02/20 03:30:45;;;;;;;36.23;14.03;;;8.10;99.90;;;;;;5169836;22;20590;-94
2023/02/20 03:44:56;;;;;;;32.63;10.70;;;8.30;99.90;;;;;;5170204;23;20151;-92
2023/02/20 03:47:00;;;;;;;32.57;10.57;;;8.30;99.90;;;;;;5194552;22;20548;-92
2023/02/20 03:49:16;;;;;;;38.20;11.90;;;8.30;99.90;;;;;;5144575;23;20175;-92
2023/02/20 03:53:46;;;;;;;40.80;11.33;;;8.60;99.90;;;;;;5169304;23;20178;-94
2023/02/20 03:55:50;;;;;;;32.27;11.73;;;8.60;99.90;;;;;;5169492;22;20161;-93
2023/02/20 03:57:57;;;;;;;32.13;11.97;;;8.70;99.90;;;;;;5144037;23;20147;-93
2023/02/20 04:00:11;;;;;;;30.17;11.87;;;8.60;99.90;;;;;;5144000;23;20187;-92
2023/02/20 04:02:26;;;;;;;33.50;12.50;;;8.60;99.90;;;;;;5146625;23;20231;-93
2023/02/20 04:04:41;;;;;;;30.47;11.47;;;8.60;99.90;;;;;;5169225;23;20143;-93
2023/02/20 04:06:45;;;;;;;29.83;11.10;;;8.60;99.90;;;;;;5194508;22;20188;-93
2023/02/20 04:08:55;;;;;;;27.23;11.90;;;8.70;99.90;;;;;;5144004;23;20151;-91
2023/02/20 04:11:09;;;;;;;30.50;12.07;;;8.60;99.90;;;;;;5143973;23;20622;-92
2023/02/20 04:13:13;;;;;;;33.27;12.63;;;8.60;99.90;;;;;;5143807;23;20534;-92
2023/02/20 04:15:18;;;;;;;33.05;12.50;;;8.60;99.90;;;;;;5168748;22;20190;-95
2023/02/20 04:17:36;;;;;;;28.80;10.90;;;8.50;99.90;;;;;;5143795;23;20191;-94
2023/02/20 04:19:37;;;;;;;27.23;11.20;;;8.60;99.90;;;;;;5143385;23;20213;-92
2023/02/20 04:21:50;;;;;;;23.10;12.07;;;8.60;99.90;;;;;;5168921;23;20158;-94
2023/02/20 04:24:06;;;;;;;37.42;13.07;;;8.80;99.90;;;;;;5143846;23;20598;-94
2023/02/20 04:26:20;;;;;;;28.57;12.40;;;8.80;99.90;;;;;;5143806;23;20175;-93
2023/02/20 04:28:23;;;;;;;35.97;12.03;;;8.60;99.90;;;;;;5143825;23;20159;-94
2023/02/20 04:30:31;;;;;;;33.03;12.23;;;8.60;99.90;;;;;;5144917;23;20174;-92
2023/02/20 04:32:32;;;;;;;27.43;11.23;;;8.60;99.90;;;;;;5143587;23;20152;-93
2023/02/20 04:34:34;;;;;;;37.88;12.57;;;8.50;99.90;;;;;;5143333;23;20262;-92
2023/02/20 04:36:36;;;;;;;33.60;12.38;;;8.40;99.90;;;;;;5144016;23;20158;-92
2023/02/20 04:38:39;;;;;;;32.03;11.90;;;8.30;99.90;;;;;;5168645;22;20159;-92
2023/02/20 04:40:42;;;;;;;31.85;12.65;;;8.50;99.90;;;;;;5143797;23;20144;-95
2023/02/20 04:42:43;;;;;;;34.22;13.90;;;8.50;99.90;;;;;;5143776;23;20518;-95
2023/02/20 04:44:44;;;;;;;31.73;13.90;;;8.60;99.90;;;;;;5143469;23;20190;-92
2023/02/20 04:46:46;;;;;;;33.17;14.80;;;8.60;99.90;;;;;;5168658;23;20167;-92
2023/02/20 04:48:48;;;;;;;30.17;15.07;;;8.60;99.90;;;;;;5143602;23;20148;-92
2023/02/20 04:50:49;;;;;;;33.90;15.77;;;8.70;99.90;;;;;;5143659;23;20506;-92
2023/02/20 04:52:51;;;;;;;38.93;15.43;;;8.60;99.90;;;;;;5143695;23;20155;-90
2023/02/20 04:54:52;;;;;;;36.83;13.10;;;8.70;99.90;;;;;;5143710;23;20195;-95
2023/02/20 04:56:53;;;;;;;41.97;13.23;;;8.60;99.90;;;;;;5168778;23;20154;-93
2023/02/20 04:58:55;;;;;;;26.40;9.53;;;8.40;99.90;;;;;;5143463;23;20579;-95
2023/02/20 05:00:56;;;;;;;25.00;8.80;;;8.40;99.90;;;;;;5143246;23;20155;-95
2023/02/20 05:02:57;;;;;;;22.47;8.50;;;8.30;99.90;;;;;;5168671;22;20161;-93
2023/02/20 05:04:58;;;;;;;25.50;9.30;;;8.20;99.90;;;;;;5143111;23;20608;-94
2023/02/20 05:06:59;;;;;;;27.13;9.60;;;8.40;99.90;;;;;;5143631;23;20155;-91
2023/02/20 05:08:59;;;;;;;26.73;12.20;;;8.40;99.90;;;;;;5143004;23;20175;-93
2023/02/20 05:11:00;;;;;;;34.80;14.17;;;8.40;99.90;;;;;;5143167;23;20534;-90
2023/02/20 05:13:01;;;;;;;36.43;13.60;;;8.60;99.90;;;;;;5143231;23;20630;-90
2023/02/20 05:15:03;;;;;;;28.23;13.37;;;8.50;99.90;;;;;;5142882;23;20247;-91
2023/02/20 05:17:03;;;;;;;26.80;12.80;;;8.50;99.90;;;;;;5143511;23;20155;-93
2023/02/20 05:19:05;;;;;;;28.73;11.70;;;8.60;99.90;;;;;;5143158;23;20297;-93
2023/02/20 05:23:25;;;;;;;28.33;12.30;;;8.60;99.90;;;;;;5168483;23;20150;-94
2023/02/20 05:25:26;;;;;;;36.88;12.10;;;8.70;99.90;;;;;;5168613;23;20529;-96
2023/02/20 05:27:27;;;;;;;34.60;12.67;;;8.60;99.90;;;;;;5143850;23;20147;-92
2023/02/20 05:29:28;;;;;;;25.10;12.47;;;8.40;99.90;;;;;;5143246;23;20183;-95
2023/02/20 05:31:28;;;;;;;30.33;12.10;;;8.40;99.90;;;;;;5168273;23;20147;-92
2023/02/20 05:33:29;;;;;;;31.13;12.13;;;8.50;99.90;;;;;;5143291;23;20470;-93
2023/02/20 05:35:30;;;;;;;33.65;13.30;;;8.50;99.90;;;;;;5168388;23;20541;-92
2023/02/20 05:37:31;;;;;;;27.07;12.50;;;8.70;99.90;;;;;;5143154;23;20575;-91
2023/02/20 05:39:31;;;;;;;30.83;11.23;;;8.50;99.90;;;;;;5168218;23;20174;-94
2023/02/20 05:41:32;;;;;;;36.43;11.63;;;8.60;99.90;;;;;;5168456;23;20154;-95
2023/02/20 05:43:33;;;;;;;26.97;10.60;;;8.70;99.90;;;;;;5142848;23;20243;-92
2023/02/20 05:45:33;;;;;;;27.20;11.40;;;8.60;99.90;;;;;;5142725;23;20147;-92
2023/02/20 05:47:37;;;;;;;32.23;11.73;;;8.50;99.90;;;;;;5142834;23;20167;-95
2023/02/20 05:49:37;;;;;;;37.10;11.77;;;8.40;99.90;;;;;;5143095;23;20531;-93
2023/02/20 05:51:38;;;;;;;28.63;12.23;;;8.30;99.90;;;;;;5168106;23;20151;-95
2023/02/20 05:53:39;;;;;;;25.10;11.40;;;8.20;99.90;;;;;;5142764;23;20230;-92
2023/02/20 05:55:40;;;;;;;35.70;11.43;;;8.30;99.90;;;;;;5142694;23;20159;-92
2023/02/20 05:57:40;;;;;;;26.07;11.97;;;8.30;99.90;;;;;;5143125;23;20148;-94
2023/02/20 05:59:41;;;;;;;27.63;13.17;;;8.30;99.90;;;;;;5142926;23;20638;-95
2023/02/20 06:01:42;;;;;;;26.17;13.37;;;8.50;99.90;;;;;;5143167;23;20584;-94
2023/02/20 06:03:43;;;;;;;36.33;13.03;;;8.60;99.90;;;;;;5142877;23;20586;-95
2023/02/20 06:05:43;;;;;;;35.93;13.07;;;8.30;99.90;;;;;;5168099;22;20147;-95
2023/02/20 06:07:45;;;;;;;31.47;13.20;;;8.30;99.90;;;;;;5142922;23;20626;-92
2023/02/20 06:09:46;;;;;;;22.20;11.73;;;8.30;99.90;;;;;;5142783;23;20229;-94
2023/02/20 06:11:52;;;;;;;24.67;11.97;;;8.40;99.90;;;;;;5143460;23;20183;-90
2023/02/20 06:13:53;;;;;;;25.53;11.40;;;8.40;99.90;;;;;;5142697;23;20179;-93
2023/02/20 06:15:54;;;;;;;24.60;10.77;;;8.30;99.90;;;;;;5143040;23;20190;-93
2023/02/20 06:17:55;;;;;;;34.33;11.90;;;8.30;99.90;;;;;;5144720;23;20147;-94
2023/02/20 06:19:55;;;;;;;29.37;11.30;;;8.30;99.90;;;;;;5144788;23;20533;-94
2023/02/20 06:22:00;;;;;;;27.87;11.97;;;8.40;99.90;;;;;;5169808;23;20146;-95
2023/02/20 06:24:01;;;;;;;35.13;11.53;;;8.40;99.90;;;;;;5169883;23;20659;-91
2023/02/20 06:26:02;;;;;;;26.97;11.00;;;8.50;99.90;;;;;;5144597;23;20183;-94
2023/02/20 06:28:02;;;;;;;32.17;11.32;;;8.30;99.90;;;;;;5144486;23;20144;-93
2023/02/20 06:30:03;;;;;;;18.13;8.60;;;8.40;99.90;;;;;;5144249;23;20175;-95
2023/02/20 06:32:04;;;;;;;28.17;9.97;;;8.30;99.90;;;;;;5169626;23;20178;-96
2023/02/20 06:34:07;;;;;;;21.33;8.53;;;8.30;99.90;;;;;;5144479;23;20183;-93
2023/02/20 06:36:19;;;;;;;28.93;9.43;;;8.40;99.90;;;;;;5145260;23;20181;-92
2023/02/20 06:38:21;;;;;;;24.33;10.20;;;8.60;99.90;;;;;;5176880;23;20147;-93
2023/02/20 06:40:22;;;;;;;26.60;10.47;;;8.70;99.90;;;;;;5123979;23;20657;-94
2023/02/20 06:42:23;;;;;;;23.87;10.17;;;8.70;99.90;;;;;;5145107;23;20156;-91
2023/02/20 06:44:24;;;;;;;24.27;9.67;;;8.70;99.90;;;;;;5169969;23;20173;-91
2023/02/20 06:46:25;;;;;;;25.05;10.38;;;8.80;99.90;;;;;;5144943;23;20152;-91
2023/02/20 06:48:25;;;;;;;21.77;7.47;;;8.90;99.90;;;;;;5144803;23;20510;-94
2023/02/20 06:50:26;;;;;;;26.87;9.43;;;8.70;99.90;;;;;;5144431;23;20182;-95
2023/02/20 06:52:27;;;;;;;25.13;9.63;;;8.60;99.90;;;;;;5144439;23;20147;-91
2023/02/20 06:54:27;;;;;;;74.63;37.20;;;8.70;99.90;;;;;;5144330;23;20210;-94
2023/02/20 06:56:31;;;;;;;35.47;12.87;;;8.60;99.90;;;;;;5144474;23;20144;-90
2023/02/20 06:58:32;;;;;;;37.03;16.27;;;8.50;99.90;;;;;;5144474;23;20151;-92
2023/02/20 07:00:32;;;;;;;48.80;24.57;;;8.40;99.90;;;;;;5169504;23;20242;-90
2023/02/20 07:02:36;;;;;;;56.83;26.87;;;8.30;99.90;;;;;;5144196;23;20540;-92
2023/02/20 07:04:37;;;;;;;21.23;8.68;;;8.30;99.90;;;;;;5144670;23;20194;-95
2023/02/20 07:06:37;;;;;;;37.50;11.87;;;8.30;99.90;;;;;;5144565;23;20215;-93
2023/02/20 07:08:38;;;;;;;29.53;11.33;;;8.40;99.90;;;;;;5144362;23;20143;-91
2023/02/20 07:10:39;;;;;;;26.40;8.70;;;8.50;99.90;;;;;;5169643;23;20150;-91
2023/02/20 07:12:40;;;;;;;26.33;8.17;;;8.50;99.90;;;;;;5144550;23;20151;-93
2023/02/20 07:14:41;;;;;;;31.23;18.77;;;8.70;99.90;;;;;;5144094;23;20191;-93
2023/02/20 07:16:41;;;;;;;18.80;6.67;;;8.50;99.90;;;;;;5169222;23;20155;-94
2023/02/20 07:18:42;;;;;;;21.30;6.77;;;8.70;99.90;;;;;;5144136;23;20217;-92
2023/02/20 07:20:43;;;;;;;19.13;6.63;;;8.70;99.90;;;;;;5144599;23;20563;-92
2023/02/20 07:22:51;;;;;;;14.88;5.85;;;8.80;99.90;;;;;;5144356;23;20693;-90
2023/02/20 07:24:52;;;;;;;22.77;7.95;;;8.90;99.90;;;;;;5144175;23;20622;-90
2023/02/20 07:26:53;;;;;;;20.97;6.50;;;8.80;99.90;;;;;;5149875;23;20207;-91
2023/02/20 07:28:57;;;;;;;21.77;6.70;;;8.70;99.90;;;;;;5155613;23;20155;-90
2023/02/20 07:30:58;;;;;;;16.97;5.43;;;8.60;99.90;;;;;;5166485;22;20144;-91
2023/02/20 07:32:59;;;;;;;26.60;12.43;;;8.70;99.90;;;;;;5156959;22;20214;-93
2023/02/20 07:34:59;;;;;;;28.07;14.93;;;8.80;99.90;;;;;;5144507;23;20195;-93
2023/02/20 07:37:00;;;;;;;21.00;7.38;;;8.50;99.90;;;;;;5144339;23;20238;-91
2023/02/20 07:39:03;;;;;;;21.40;6.45;;;8.60;99.90;;;;;;5144010;23;20226;-94
2023/02/20 07:41:04;;;;;;;16.43;5.03;;;8.60;99.90;;;;;;5144253;23;20144;-93
2023/02/20 07:43:05;;;;;;;14.82;5.55;;;8.80;99.90;;;;;;5144485;23;20245;-96
2023/02/20 07:45:11;;;;;;;19.73;5.50;;;9.10;99.90;;;;;;5169331;23;20147;-90
2023/02/20 07:47:12;;;;;;;16.30;5.70;;;9.20;99.90;;;;;;5144473;23;20156;-91
2023/02/20 07:49:13;;;;;;;18.13;5.43;;;9.10;99.90;;;;;;5144459;23;20221;-92
2023/02/20 07:51:14;;;;;;;17.73;6.35;;;9.30;99.90;;;;;;5144221;23;20144;-96
2023/02/20 07:53:17;;;;;;;21.55;6.05;;;9.10;99.90;;;;;;5194939;22;20204;-96
2023/02/20 07:55:18;;;;;;;15.77;5.40;;;8.90;99.90;;;;;;5169060;23;20622;-91
2023/02/20 07:57:19;;;;;;;29.00;10.23;;;9.00;99.90;;;;;;5144180;23;20148;-93
2023/02/20 07:59:20;;;;;;;23.05;8.20;;;8.90;99.90;;;;;;5169008;23;20507;-93
2023/02/20 08:01:21;;;;;;;31.08;12.65;;;8.80;99.90;;;;;;5143830;23;20155;-92
2023/02/20 08:03:21;;;;;;;18.65;7.20;;;8.80;99.90;;;;;;5169103;23;20147;-94
2023/02/20 08:05:22;;;;;;;17.50;5.30;;;8.60;99.90;;;;;;5144204;23;20160;-93
2023/02/20 08:07:23;;;;;;;16.05;5.60;;;8.70;99.90;;;;;;5144527;23;20210;-95
2023/02/20 08:09:24;;;;;;;17.40;5.65;;;8.70;99.90;;;;;;5144415;23;20172;-95
2023/02/20 08:11:25;;;;;;;17.25;5.30;;;8.50;99.90;;;;;;5144208;23;20156;-93
2023/02/20 08:13:26;;;;;;;16.67;5.53;;;8.70;99.90;;;;;;5144093;23;20143;-90
2023/02/20 08:15:28;;;;;;;23.77;5.28;;;8.70;99.90;;;;;;5143781;23;20191;-94
2023/02/20 08:17:29;;;;;;;18.33;5.87;;;8.90;99.90;;;;;;5144223;23;20175;-93
2023/02/20 08:19:29;;;;;;;23.38;5.35;;;8.90;99.90;;;;;;5168731;23;20186;-94
2023/02/20 08:21:30;;;;;;;14.40;5.18;;;8.80;99.90;;;;;;5143653;23;20170;-93
2023/02/20 08:23:31;;;;;;;15.25;4.38;;;8.80;99.90;;;;;;5169023;22;20478;-95
2023/02/20 08:25:32;;;;;;;17.70;4.38;;;9.00;99.90;;;;;;5143735;23;20182;-93
2023/02/20 08:27:37;;;;;;;19.27;4.43;;;9.20;99.90;;;;;;5143934;23;20606;-94
2023/02/20 08:29:37;;;;;;;20.80;4.88;;;9.20;99.90;;;;;;5168632;23;20170;-93
2023/02/20 08:31:38;;;;;;;15.52;4.72;;;9.00;99.90;;;;;;5143631;23;20151;-95
2023/02/20 08:33:39;;;;;;;19.20;4.70;;;9.00;99.90;;;;;;5168676;23;20162;-90
2023/02/20 08:35:40;;;;;;;22.10;4.87;;;9.00;99.90;;;;;;5143844;23;20242;-94
2023/02/20 08:37:41;;;;;;;17.92;6.15;;;9.00;99.90;;;;;;5143543;23;20606;-92
2023/02/20 08:39:42;;;;;;;12.13;4.90;;;9.00;99.90;;;;;;5168210;23;20178;-93
2023/02/20 08:41:44;;;;;;;16.67;4.10;;;9.00;99.90;;;;;;5143874;23;20188;-90
2023/02/20 08:43:45;;;;;;;13.45;5.13;;;9.10;99.90;;;;;;5143495;23;20202;-93
2023/02/20 08:45:47;;;;;;;25.30;4.97;;;9.30;99.90;;;;;;5143560;23;20251;-90
2023/02/20 08:47:48;;;;;;;23.38;8.77;;;9.50;99.90;;;;;;5143543;23;20183;-90
2023/02/20 08:49:49;;;;;;;21.15;4.95;;;9.50;99.90;;;;;;5143624;23;20270;-93
2023/02/20 08:51:54;;;;;;;21.07;7.90;;;9.70;99.90;;;;;;5143654;23;20151;-92
2023/02/20 08:53:54;;;;;;;21.15;5.40;;;9.50;99.90;;;;;;5143450;23;20147;-93
2023/02/20 08:55:55;;;;;;;24.23;6.22;;;9.40;99.90;;;;;;5143256;23;20271;-94
2023/02/20 08:57:56;;;;;;;13.40;4.57;;;9.40;99.90;;;;;;5143672;23;20152;-93
2023/02/20 08:59:57;;;;;;;12.70;4.70;;;9.60;99.90;;;;;;5143555;23;20175;-92
2023/02/20 09:01:57;;;;;;;19.35;6.72;;;9.70;99.90;;;;;;5143869;23;20147;-91
2023/02/20 09:03:58;;;;;;;18.75;5.75;;;9.50;99.90;;;;;;5143679;23;20547;-90
2023/02/20 09:05:59;;;;;;;14.95;4.78;;;9.50;99.90;;;;;;5143360;23;20171;-94
2023/02/20 09:08:01;;;;;;;19.23;4.95;;;9.40;99.90;;;;;;5143382;23;20166;-92
2023/02/20 09:10:03;;;;;;;11.48;4.15;;;9.20;99.90;;;;;;5143482;23;20249;-92
2023/02/20 09:12:04;;;;;;;25.58;4.82;;;9.00;99.90;;;;;;5143436;23;20152;-93
2023/02/20 09:14:05;;;;;;;18.98;4.82;;;9.00;99.90;;;;;;5168530;22;20550;-90
2023/02/20 09:16:06;;;;;;;19.93;4.77;;;8.90;99.90;;;;;;5143561;23;20151;-90
2023/02/20 09:18:10;;;;;;;17.02;4.65;;;9.00;99.90;;;;;;5143427;23;20155;-93
2023/02/20 09:24:37;;;;;;;20.90;4.65;;;9.30;99.90;;;;;;5035163;23;20169;-93
2023/02/20 09:27:18;;;;;;;15.82;4.55;;;9.10;99.90;;;;;;5022739;23;20561;-93
2023/02/20 09:29:43;;;;;;;18.15;4.32;;;9.30;99.90;;;;;;5159603;23;20277;-93
2023/02/20 09:36:24;;;;;;;;;;;;;;;;;;;;;
2023/02/20 09:43:13;;;;;;;;;;;;;;;;;;;;;
2023/02/20 09:46:06;;;;;;;15.82;4.90;;;9.50;99.90;;;;;;4935277;23;20213;-94
2023/02/20 09:58:35;;;;;;;21.13;5.13;;;9.70;99.90;;;;;;5020224;23;20159;-94
2023/02/20 10:08:05;;;;;;;14.68;5.60;;;9.80;99.90;;;;;;4881636;24;20166;-95
2023/02/20 10:23:29;;;;;;;17.73;5.07;;;10.00;99.90;;;;;;5169115;23;20229;-93
2023/02/20 11:45:43;;;;;;;;;;;;;;;;;;;;;
2023/02/20 11:49:29;;;;;;;;;;;;;;;;;;;;;
2023/02/20 11:53:01;;;;;;;21.20;4.00;;;10.10;99.90;;;;;;5073679;23;20673;-95
2023/02/20 11:55:48;;;;;;;19.05;4.78;;;10.50;99.90;;;;;;4973815;23;20191;-93
2023/02/20 12:02:37;;;;;;;22.92;4.40;;;10.70;99.90;;;;;;4972756;23;20157;-93
2023/02/20 13:59:40;;;;;;;;;;;;;;;;;;;;;
2023/02/20 14:40:14;;;;;;;;;;;;;;;;;;;;;
2023/02/20 14:47:11;;;;;;;26.63;12.48;;;11.40;99.90;;;;;;5068636;23;20195;-93
2023/02/20 14:53:55;;;;;;;;;;;;;;;;;;;;;
2023/02/20 14:57:18;;;;;;;;;;;;;;;;;;;;;
2023/02/20 15:04:39;;;;;;;40.90;21.30;;;11.30;99.90;;;;;;4929379;24;20178;-94
2023/02/20 15:20:56;;;;;;;23.52;12.70;;;10.70;99.90;;;;;;5221705;22;20497;-94
2023/02/20 15:23:08;;;;;;;13.43;5.38;;;10.50;99.90;;;;;;5169795;23;20159;-92
2023/02/20 15:25:21;;;;;;;17.73;4.15;;;10.40;99.90;;;;;;5220861;22;20202;-92
2023/02/20 15:27:23;;;;;;;13.15;4.78;;;10.50;99.90;;;;;;5220872;22;20145;-92
2023/02/20 15:29:27;;;;;;;7.93;3.13;;;10.60;99.90;;;;;;5170292;23;20170;-93
2023/02/20 15:31:28;;;;;;;11.40;4.85;;;10.60;99.90;;;;;;5195172;22;20166;-94
2023/02/20 15:33:31;;;;;;;11.82;3.42;;;10.80;99.90;;;;;;5170125;23;20230;-93
2023/02/20 15:35:32;;;;;;;14.23;8.93;;;10.90;99.90;;;;;;5195694;22;20273;-93
2023/02/20 15:37:33;;;;;;;26.38;19.98;;;10.90;99.90;;;;;;5169940;23;20147;-93
2023/02/20 15:39:39;;;;;;;15.85;11.57;;;10.80;99.90;;;;;;5169645;23;20171;-93
2023/02/20 15:41:41;;;;;;;8.35;3.80;;;10.60;99.90;;;;;;5195104;22;20146;-95
2023/02/20 15:43:41;;;;;;;11.32;4.03;;;10.70;99.90;;;;;;5195050;22;20170;-92
2023/02/20 15:45:42;;;;;;;11.88;4.22;;;11.00;99.90;;;;;;5170058;23;20155;-94
2023/02/20 15:47:43;;;;;;;9.68;4.43;;;11.10;99.90;;;;;;5194836;22;20159;-95
2023/02/20 15:49:43;;;;;;;12.65;5.07;;;11.20;99.90;;;;;;5170068;23;20185;-95
2023/02/20 15:54:16;;;;;;;9.82;4.43;;;11.20;99.90;;;;;;5201632;22;20160;-94
2023/02/20 15:56:17;;;;;;;13.13;4.45;;;11.20;99.90;;;;;;5145629;23;20246;-95
2023/02/20 15:58:35;;;;;;;10.82;4.90;;;11.20;99.90;;;;;;5169288;23;20233;-94
2023/02/20 16:00:35;;;;;;;11.77;4.00;;;11.20;99.90;;;;;;5194727;22;20170;-94
2023/02/20 16:02:36;;;;;;;12.00;5.53;;;11.10;99.90;;;;;;5169958;23;20153;-94
2023/02/20 16:04:37;;;;;;;10.45;4.93;;;10.80;99.90;;;;;;5170363;23;20604;-94
2023/02/20 16:06:37;;;;;;;12.25;4.32;;;10.60;99.90;;;;;;5194834;22;20151;-93
2023/02/20 16:08:38;;;;;;;10.93;4.38;;;10.80;99.90;;;;;;5169480;23;20155;-95
2023/02/20 16:10:39;;;;;;;10.07;5.03;;;10.90;99.90;;;;;;5194311;22;20154;-93
2023/02/20 16:12:40;;;;;;;15.48;4.95;;;10.70;99.90;;;;;;5168914;23;20234;-93
2023/02/20 16:14:40;;;;;;;12.63;4.15;;;10.70;99.90;;;;;;5168828;23;20190;-92
2023/02/20 16:16:47;;;;;;;12.50;4.60;;;10.70;99.90;;;;;;5169215;23;20225;-93
2023/02/20 16:18:49;;;;;;;16.17;4.82;;;10.80;99.90;;;;;;5169129;23;20158;-94
2023/02/20 16:20:51;;;;;;;10.70;4.60;;;10.60;99.90;;;;;;5194460;22;20180;-92
2023/02/20 16:22:52;;;;;;;18.75;5.10;;;10.50;99.90;;;;;;5169099;23;20154;-93
2023/02/20 16:24:53;;;;;;;11.43;4.45;;;10.60;99.90;;;;;;5169314;23;20205;-94
2023/02/20 16:26:54;;;;;;;15.00;6.70;;;10.60;99.90;;;;;;5168700;23;20185;-92